sensor_id;sensor_type;location;lat;lon;timestamp;temperature;humidity
48994;DHT22;34804;49.214;12.276;2024-01-10T00:00:15;-3269.00;82.40
48994;DHT22;34804;49.214;12.276;2024-01-10T00:02:42;-3268.90;82.50
48994;DHT22;34804;49.214;12.276;2024-01-10T00:05:09;-3269.00;82.70
48994;DHT22;34804;49.214;12.276;2024-01-10T00:07:36;-3268.90;82.70
48994;DHT22;34804;49.214;12.276;2024-01-10T00:10:04;-3268.90;82.90
48994;DHT22;34804;49.214;12.276;2024-01-10T00:12:32;-3268.90;83.10
48994;DHT22;34804;49.214;12.276;2024-01-10T00:15:04;-3268.90;83.30
48994;DHT22;34804;49.214;12.276;2024-01-10T00:17:31;-3268.90;83.20
48994;DHT22;34804;49.214;12.276;2024-01-10T00:19:59;-3268.90;82.90
48994;DHT22;34804;49.214;12.276;2024-01-10T00:22:26;-3269.00;83.10
48994;DHT22;34804;49.214;12.276;2024-01-10T00:24:52;-3269.00;83.00
48994;DHT22;34804;49.214;12.276;2024-01-10T00:27:19;-3269.00;83.00
48994;DHT22;34804;49.214;12.276;2024-01-10T00:29:46;-3269.00;83.30
48994;DHT22;34804;49.214;12.276;2024-01-10T00:32:13;-3268.90;83.50
48994;DHT22;34804;49.214;12.276;2024-01-10T00:34:40;-3268.90;83.30
48994;DHT22;34804;49.214;12.276;2024-01-10T00:37:06;-3268.80;83.50
48994;DHT22;34804;49.214;12.276;2024-01-10T00:39:33;-3268.70;83.80
48994;DHT22;34804;49.214;12.276;2024-01-10T00:42:00;-3268.70;84.10
48994;DHT22;34804;49.214;12.276;2024-01-10T00:44:27;-3268.70;84.20
48994;DHT22;34804;49.214;12.276;2024-01-10T00:46:54;-3268.80;84.20
48994;DHT22;34804;49.214;12.276;2024-01-10T00:49:21;-3268.70;84.10
48994;DHT22;34804;49.214;12.276;2024-01-10T00:51:48;-3268.70;84.00
48994;DHT22;34804;49.214;12.276;2024-01-10T00:54:15;-3268.70;83.70
48994;DHT22;34804;49.214;12.276;2024-01-10T00:56:42;-3268.80;83.80
48994;DHT22;34804;49.214;12.276;2024-01-10T00:59:09;-3268.70;83.90
48994;DHT22;34804;49.214;12.276;2024-01-10T01:01:36;-3268.80;83.90
48994;DHT22;34804;49.214;12.276;2024-01-10T01:04:03;-3268.70;83.60
48994;DHT22;34804;49.214;12.276;2024-01-10T01:06:30;-3268.70;83.30
48994;DHT22;34804;49.214;12.276;2024-01-10T01:08:56;-3268.70;83.10
48994;DHT22;34804;49.214;12.276;2024-01-10T01:11:25;-3268.70;82.90
48994;DHT22;34804;49.214;12.276;2024-01-10T01:13:52;-3268.70;82.70
48994;DHT22;34804;49.214;12.276;2024-01-10T01:16:19;-3268.70;82.90
48994;DHT22;34804;49.214;12.276;2024-01-10T01:18:46;-3268.70;83.10
48994;DHT22;34804;49.214;12.276;2024-01-10T01:21:13;-3268.70;83.10
48994;DHT22;34804;49.214;12.276;2024-01-10T01:23:40;-3268.70;83.40
48994;DHT22;34804;49.214;12.276;2024-01-10T01:26:08;-3268.70;83.50
48994;DHT22;34804;49.214;12.276;2024-01-10T01:28:36;-3268.70;83.80
48994;DHT22;34804;49.214;12.276;2024-01-10T01:31:03;-3268.70;84.00
48994;DHT22;34804;49.214;12.276;2024-01-10T01:33:30;-3268.70;84.30
48994;DHT22;34804;49.214;12.276;2024-01-10T01:35:57;-3268.70;84.60
48994;DHT22;34804;49.214;12.276;2024-01-10T01:38:24;-3268.60;84.70
48994;DHT22;34804;49.214;12.276;2024-01-10T01:40:51;-3268.70;84.70
48994;DHT22;34804;49.214;12.276;2024-01-10T01:43:23;-3268.70;84.30
48994;DHT22;34804;49.214;12.276;2024-01-10T01:45:52;-3268.70;83.80
48994;DHT22;34804;49.214;12.276;2024-01-10T01:48:21;-3268.70;83.40
48994;DHT22;34804;49.214;12.276;2024-01-10T01:50:51;-3268.80;83.10
48994;DHT22;34804;49.214;12.276;2024-01-10T01:53:19;-3268.80;82.90
48994;DHT22;34804;49.214;12.276;2024-01-10T01:55:46;-3268.80;83.20
48994;DHT22;34804;49.214;12.276;2024-01-10T01:58:14;-3268.70;83.30
48994;DHT22;34804;49.214;12.276;2024-01-10T02:00:41;-3268.70;83.70
48994;DHT22;34804;49.214;12.276;2024-01-10T02:03:10;-3268.70;83.80
48994;DHT22;34804;49.214;12.276;2024-01-10T02:05:37;-3268.70;83.80
48994;DHT22;34804;49.214;12.276;2024-01-10T02:08:05;-3268.60;84.00
48994;DHT22;34804;49.214;12.276;2024-01-10T02:10:32;-3268.60;84.00
48994;DHT22;34804;49.214;12.276;2024-01-10T02:13:00;-3268.60;83.80
48994;DHT22;34804;49.214;12.276;2024-01-10T02:15:27;-3268.60;83.80
48994;DHT22;34804;49.214;12.276;2024-01-10T02:17:54;-3268.60;83.70
48994;DHT22;34804;49.214;12.276;2024-01-10T02:20:21;-3268.60;83.90
48994;DHT22;34804;49.214;12.276;2024-01-10T02:22:48;-3268.60;84.10
48994;DHT22;34804;49.214;12.276;2024-01-10T02:25:17;-3268.60;84.30
48994;DHT22;34804;49.214;12.276;2024-01-10T02:27:44;-3268.60;84.40
48994;DHT22;34804;49.214;12.276;2024-01-10T02:30:11;-3268.60;84.30
48994;DHT22;34804;49.214;12.276;2024-01-10T02:32:38;-3268.60;84.30
48994;DHT22;34804;49.214;12.276;2024-01-10T02:35:06;-3268.70;84.00
48994;DHT22;34804;49.214;12.276;2024-01-10T02:37:33;-3268.70;83.80
48994;DHT22;34804;49.214;12.276;2024-01-10T02:40:01;-3268.70;83.80
48994;DHT22;34804;49.214;12.276;2024-01-10T02:42:28;-3268.70;83.80
48994;DHT22;34804;49.214;12.276;2024-01-10T02:44:56;-3268.70;84.00
48994;DHT22;34804;49.214;12.276;2024-01-10T02:47:23;-3268.70;84.10
48994;DHT22;34804;49.214;12.276;2024-01-10T02:49:50;-3268.70;84.10
48994;DHT22;34804;49.214;12.276;2024-01-10T02:52:17;-3268.60;84.30
48994;DHT22;34804;49.214;12.276;2024-01-10T02:54:46;-3268.60;84.50
48994;DHT22;34804;49.214;12.276;2024-01-10T02:57:13;-3268.60;84.50
48994;DHT22;34804;49.214;12.276;2024-01-10T02:59:40;-3268.60;84.40
48994;DHT22;34804;49.214;12.276;2024-01-10T03:02:07;-3268.60;84.30
48994;DHT22;34804;49.214;12.276;2024-01-10T03:04:34;-3268.50;84.30
48994;DHT22;34804;49.214;12.276;2024-01-10T03:07:01;-3268.50;84.20
48994;DHT22;34804;49.214;12.276;2024-01-10T03:09:28;-3268.50;84.10
48994;DHT22;34804;49.214;12.276;2024-01-10T03:11:55;-3268.50;84.20
48994;DHT22;34804;49.214;12.276;2024-01-10T03:14:22;-3268.50;84.40
48994;DHT22;34804;49.214;12.276;2024-01-10T03:16:49;-3268.50;84.60
48994;DHT22;34804;49.214;12.276;2024-01-10T03:19:16;-3268.40;84.70
48994;DHT22;34804;49.214;12.276;2024-01-10T03:21:43;-3268.40;85.00
48994;DHT22;34804;49.214;12.276;2024-01-10T03:24:10;-3268.40;85.30
48994;DHT22;34804;49.214;12.276;2024-01-10T03:26:36;-3268.40;85.20
48994;DHT22;34804;49.214;12.276;2024-01-10T03:29:03;-3268.40;85.10
48994;DHT22;34804;49.214;12.276;2024-01-10T03:31:31;-3268.50;85.10
48994;DHT22;34804;49.214;12.276;2024-01-10T03:33:58;-3268.60;85.30
48994;DHT22;34804;49.214;12.276;2024-01-10T03:36:25;-3268.50;85.20
48994;DHT22;34804;49.214;12.276;2024-01-10T03:38:52;-3268.60;85.10
48994;DHT22;34804;49.214;12.276;2024-01-10T03:41:20;-3268.60;84.90
48994;DHT22;34804;49.214;12.276;2024-01-10T03:43:47;-3268.70;85.00
48994;DHT22;34804;49.214;12.276;2024-01-10T03:46:15;-3268.70;85.10
48994;DHT22;34804;49.214;12.276;2024-01-10T03:48:43;-3268.60;84.60
48994;DHT22;34804;49.214;12.276;2024-01-10T03:51:17;-3268.50;84.60
48994;DHT22;34804;49.214;12.276;2024-01-10T03:53:47;-3268.40;84.70
48994;DHT22;34804;49.214;12.276;2024-01-10T03:56:16;-3268.40;84.80
48994;DHT22;34804;49.214;12.276;2024-01-10T03:58:43;-3268.40;85.10
48994;DHT22;34804;49.214;12.276;2024-01-10T04:01:10;-3268.30;85.00
48994;DHT22;34804;49.214;12.276;2024-01-10T04:03:37;-3268.30;85.10
48994;DHT22;34804;49.214;12.276;2024-01-10T04:06:05;-3268.30;85.40
48994;DHT22;34804;49.214;12.276;2024-01-10T04:08:32;-3268.30;85.50
48994;DHT22;34804;49.214;12.276;2024-01-10T04:10:59;-3268.30;85.70
48994;DHT22;34804;49.214;12.276;2024-01-10T04:13:26;-3268.20;85.70
48994;DHT22;34804;49.214;12.276;2024-01-10T04:15:53;-3268.30;85.60
48994;DHT22;34804;49.214;12.276;2024-01-10T04:18:20;-3268.30;85.70
48994;DHT22;34804;49.214;12.276;2024-01-10T04:20:50;-3268.40;85.70
48994;DHT22;34804;49.214;12.276;2024-01-10T04:23:17;-3268.50;85.20
48994;DHT22;34804;49.214;12.276;2024-01-10T04:25:44;-3268.50;85.10
48994;DHT22;34804;49.214;12.276;2024-01-10T04:28:11;-3268.60;85.00
48994;DHT22;34804;49.214;12.276;2024-01-10T04:30:38;-3268.80;84.50
48994;DHT22;34804;49.214;12.276;2024-01-10T04:33:06;-3268.80;83.50
48994;DHT22;34804;49.214;12.276;2024-01-10T04:35:33;-3268.80;83.40
48994;DHT22;34804;49.214;12.276;2024-01-10T04:38:00;-3268.80;83.50
48994;DHT22;34804;49.214;12.276;2024-01-10T04:40:27;-3268.80;83.40
48994;DHT22;34804;49.214;12.276;2024-01-10T04:42:54;-3268.80;83.60
48994;DHT22;34804;49.214;12.276;2024-01-10T04:45:20;-3268.80;83.50
48994;DHT22;34804;49.214;12.276;2024-01-10T04:47:47;-3268.80;83.30
48994;DHT22;34804;49.214;12.276;2024-01-10T04:50:14;-3268.90;82.80
48994;DHT22;34804;49.214;12.276;2024-01-10T04:52:41;-3269.00;82.50
48994;DHT22;34804;49.214;12.276;2024-01-10T04:55:08;-3269.00;82.40
48994;DHT22;34804;49.214;12.276;2024-01-10T04:57:35;-3269.00;82.30
48994;DHT22;34804;49.214;12.276;2024-01-10T05:00:05;-3268.90;82.00
48994;DHT22;34804;49.214;12.276;2024-01-10T05:02:33;-3269.00;82.10
48994;DHT22;34804;49.214;12.276;2024-01-10T05:05:00;-3269.00;82.10
48994;DHT22;34804;49.214;12.276;2024-01-10T05:07:30;-3269.00;82.30
48994;DHT22;34804;49.214;12.276;2024-01-10T05:09:57;-3268.90;82.20
48994;DHT22;34804;49.214;12.276;2024-01-10T05:12:24;-3268.90;82.10
48994;DHT22;34804;49.214;12.276;2024-01-10T05:14:50;-3268.80;82.10
48994;DHT22;34804;49.214;12.276;2024-01-10T05:17:18;-3268.80;82.50
48994;DHT22;34804;49.214;12.276;2024-01-10T05:19:45;-3268.70;82.70
48994;DHT22;34804;49.214;12.276;2024-01-10T05:22:13;-3268.60;82.90
48994;DHT22;34804;49.214;12.276;2024-01-10T05:24:40;-3268.60;83.40
48994;DHT22;34804;49.214;12.276;2024-01-10T05:27:06;-3268.50;83.40
48994;DHT22;34804;49.214;12.276;2024-01-10T05:29:33;-3268.60;83.70
48994;DHT22;34804;49.214;12.276;2024-01-10T05:32:00;-3268.50;83.70
48994;DHT22;34804;49.214;12.276;2024-01-10T05:34:27;-3268.40;83.60
48994;DHT22;34804;49.214;12.276;2024-01-10T05:36:54;-3268.40;84.00
48994;DHT22;34804;49.214;12.276;2024-01-10T05:39:21;-3268.40;84.40
48994;DHT22;34804;49.214;12.276;2024-01-10T05:41:48;-3268.40;84.40
48994;DHT22;34804;49.214;12.276;2024-01-10T05:44:15;-3268.40;84.50
48994;DHT22;34804;49.214;12.276;2024-01-10T05:46:42;-3268.40;84.50
48994;DHT22;34804;49.214;12.276;2024-01-10T05:49:09;-3268.50;84.30
48994;DHT22;34804;49.214;12.276;2024-01-10T05:51:37;-3268.50;84.00
48994;DHT22;34804;49.214;12.276;2024-01-10T05:54:04;-3268.50;84.10
48994;DHT22;34804;49.214;12.276;2024-01-10T05:56:31;-3268.60;84.10
48994;DHT22;34804;49.214;12.276;2024-01-10T05:58:58;-3268.70;83.90
48994;DHT22;34804;49.214;12.276;2024-01-10T06:01:25;-3268.70;83.60
48994;DHT22;34804;49.214;12.276;2024-01-10T06:03:52;-3268.60;83.30
48994;DHT22;34804;49.214;12.276;2024-01-10T06:06:19;-3268.60;83.50
48994;DHT22;34804;49.214;12.276;2024-01-10T06:08:46;-3268.60;83.40
48994;DHT22;34804;49.214;12.276;2024-01-10T06:11:12;-3268.60;83.30
48994;DHT22;34804;49.214;12.276;2024-01-10T06:13:39;-3268.60;83.20
48994;DHT22;34804;49.214;12.276;2024-01-10T06:16:20;-3268.60;83.30
48994;DHT22;34804;49.214;12.276;2024-01-10T06:18:47;-3268.60;83.40
48994;DHT22;34804;49.214;12.276;2024-01-10T06:21:14;-3268.60;83.20
48994;DHT22;34804;49.214;12.276;2024-01-10T06:23:41;-3268.60;83.10
48994;DHT22;34804;49.214;12.276;2024-01-10T06:26:07;-3268.70;83.30
48994;DHT22;34804;49.214;12.276;2024-01-10T06:28:34;-3268.70;83.00
48994;DHT22;34804;49.214;12.276;2024-01-10T06:31:01;-3268.70;83.00
48994;DHT22;34804;49.214;12.276;2024-01-10T06:33:29;-3268.70;82.70
48994;DHT22;34804;49.214;12.276;2024-01-10T06:35:56;-3268.70;82.60
48994;DHT22;34804;49.214;12.276;2024-01-10T06:38:23;-3268.70;82.40
48994;DHT22;34804;49.214;12.276;2024-01-10T06:40:50;-3268.80;82.40
48994;DHT22;34804;49.214;12.276;2024-01-10T06:43:18;-3268.80;82.20
48994;DHT22;34804;49.214;12.276;2024-01-10T06:45:44;-3269.00;82.20
48994;DHT22;34804;49.214;12.276;2024-01-10T06:48:12;-3269.10;81.90
48994;DHT22;34804;49.214;12.276;2024-01-10T06:50:39;-3269.20;81.80
48994;DHT22;34804;49.214;12.276;2024-01-10T06:53:06;-3269.20;81.50
48994;DHT22;34804;49.214;12.276;2024-01-10T06:55:34;-3269.20;81.30
48994;DHT22;34804;49.214;12.276;2024-01-10T06:58:01;-3269.20;81.30
48994;DHT22;34804;49.214;12.276;2024-01-10T07:00:29;-3269.20;81.10
48994;DHT22;34804;49.214;12.276;2024-01-10T07:02:57;-3269.10;81.10
48994;DHT22;34804;49.214;12.276;2024-01-10T07:05:27;-3269.10;81.20
48994;DHT22;34804;49.214;12.276;2024-01-10T07:07:55;-3269.10;81.10
48994;DHT22;34804;49.214;12.276;2024-01-10T07:10:22;-3269.00;81.10
48994;DHT22;34804;49.214;12.276;2024-01-10T07:12:53;-3268.90;81.20
48994;DHT22;34804;49.214;12.276;2024-01-10T07:15:20;-3269.00;81.30
48994;DHT22;34804;49.214;12.276;2024-01-10T07:17:48;-3268.90;81.30
48994;DHT22;34804;49.214;12.276;2024-01-10T07:20:15;-3269.00;81.60
48994;DHT22;34804;49.214;12.276;2024-01-10T07:22:42;-3269.00;82.00
48994;DHT22;34804;49.214;12.276;2024-01-10T07:25:11;-3269.00;82.00
48994;DHT22;34804;49.214;12.276;2024-01-10T07:27:41;-3269.00;82.20
48994;DHT22;34804;49.214;12.276;2024-01-10T07:30:08;-3269.10;82.10
48994;DHT22;34804;49.214;12.276;2024-01-10T07:32:41;-3269.10;81.90
48994;DHT22;34804;49.214;12.276;2024-01-10T07:35:08;-3269.20;81.70
48994;DHT22;34804;49.214;12.276;2024-01-10T07:37:40;-3269.20;81.20
48994;DHT22;34804;49.214;12.276;2024-01-10T07:40:08;-3269.30;81.20
48994;DHT22;34804;49.214;12.276;2024-01-10T07:42:35;-3269.30;80.70
48994;DHT22;34804;49.214;12.276;2024-01-10T07:45:03;-3269.40;81.00
48994;DHT22;34804;49.214;12.276;2024-01-10T07:47:32;-3269.50;80.50
48994;DHT22;34804;49.214;12.276;2024-01-10T07:50:00;-3269.50;80.20
48994;DHT22;34804;49.214;12.276;2024-01-10T07:52:28;-3269.60;79.90
48994;DHT22;34804;49.214;12.276;2024-01-10T07:54:55;-3269.60;80.10
48994;DHT22;34804;49.214;12.276;2024-01-10T07:57:22;-3269.70;79.90
48994;DHT22;34804;49.214;12.276;2024-01-10T07:59:49;-3269.70;79.80
48994;DHT22;34804;49.214;12.276;2024-01-10T08:02:16;-3269.80;79.70
48994;DHT22;34804;49.214;12.276;2024-01-10T08:04:43;-3270.00;79.20
48994;DHT22;34804;49.214;12.276;2024-01-10T08:07:10;-3270.00;78.80
48994;DHT22;34804;49.214;12.276;2024-01-10T08:09:37;-3270.00;78.80
48994;DHT22;34804;49.214;12.276;2024-01-10T08:12:04;-3270.10;78.80
48994;DHT22;34804;49.214;12.276;2024-01-10T08:14:31;-3270.20;78.30
48994;DHT22;34804;49.214;12.276;2024-01-10T08:16:58;-3270.20;78.30
48994;DHT22;34804;49.214;12.276;2024-01-10T08:19:25;-3270.30;78.30
48994;DHT22;34804;49.214;12.276;2024-01-10T08:21:55;-3270.30;78.10
48994;DHT22;34804;49.214;12.276;2024-01-10T08:24:23;-3270.30;77.90
48994;DHT22;34804;49.214;12.276;2024-01-10T08:26:49;-3270.30;77.70
48994;DHT22;34804;49.214;12.276;2024-01-10T08:29:18;-3270.40;78.10
48994;DHT22;34804;49.214;12.276;2024-01-10T08:31:46;-3270.50;77.80
48994;DHT22;34804;49.214;12.276;2024-01-10T08:34:13;-3270.60;77.70
48994;DHT22;34804;49.214;12.276;2024-01-10T08:36:40;-3270.60;77.00
48994;DHT22;34804;49.214;12.276;2024-01-10T08:39:07;-3270.70;77.00
48994;DHT22;34804;49.214;12.276;2024-01-10T08:41:34;-3270.80;76.80
48994;DHT22;34804;49.214;12.276;2024-01-10T08:44:03;-3270.80;76.80
48994;DHT22;34804;49.214;12.276;2024-01-10T08:46:31;-3270.90;76.50
48994;DHT22;34804;49.214;12.276;2024-01-10T08:48:58;-3271.00;76.70
48994;DHT22;34804;49.214;12.276;2024-01-10T08:51:25;-3271.20;76.60
48994;DHT22;34804;49.214;12.276;2024-01-10T08:53:52;-3271.30;76.10
48994;DHT22;34804;49.214;12.276;2024-01-10T08:56:19;-3271.40;75.90
48994;DHT22;34804;49.214;12.276;2024-01-10T08:58:46;-3271.40;76.10
48994;DHT22;34804;49.214;12.276;2024-01-10T09:01:14;-3271.50;76.20
48994;DHT22;34804;49.214;12.276;2024-01-10T09:03:41;-3271.60;75.80
48994;DHT22;34804;49.214;12.276;2024-01-10T09:06:07;-3271.70;75.60
48994;DHT22;34804;49.214;12.276;2024-01-10T09:08:38;-3271.80;75.90
48994;DHT22;34804;49.214;12.276;2024-01-10T09:11:06;-3271.90;75.30
48994;DHT22;34804;49.214;12.276;2024-01-10T09:13:33;-3272.00;75.10
48994;DHT22;34804;49.214;12.276;2024-01-10T09:16:01;-3272.00;74.40
48994;DHT22;34804;49.214;12.276;2024-01-10T09:18:28;-3272.20;74.50
48994;DHT22;34804;49.214;12.276;2024-01-10T09:20:55;-3272.30;74.80
48994;DHT22;34804;49.214;12.276;2024-01-10T09:23:23;-3272.40;73.50
48994;DHT22;34804;49.214;12.276;2024-01-10T09:25:50;-3272.40;73.50
48994;DHT22;34804;49.214;12.276;2024-01-10T09:28:17;-3272.60;73.50
48994;DHT22;34804;49.214;12.276;2024-01-10T09:30:45;-3272.70;72.40
48994;DHT22;34804;49.214;12.276;2024-01-10T09:33:12;-3272.70;72.50
48994;DHT22;34804;49.214;12.276;2024-01-10T09:35:39;-3272.80;72.90
48994;DHT22;34804;49.214;12.276;2024-01-10T09:38:06;-3272.90;72.50
48994;DHT22;34804;49.214;12.276;2024-01-10T09:40:33;-3273.00;72.20
48994;DHT22;34804;49.214;12.276;2024-01-10T09:43:00;-3273.10;71.90
48994;DHT22;34804;49.214;12.276;2024-01-10T09:45:28;-3273.20;72.50
48994;DHT22;34804;49.214;12.276;2024-01-10T09:47:58;-3273.30;72.60
48994;DHT22;34804;49.214;12.276;2024-01-10T09:50:25;-3273.40;72.20
48994;DHT22;34804;49.214;12.276;2024-01-10T09:52:58;-3273.50;71.70
48994;DHT22;34804;49.214;12.276;2024-01-10T09:55:34;-3273.60;71.00
48994;DHT22;34804;49.214;12.276;2024-01-10T09:58:05;-3273.60;70.70
48994;DHT22;34804;49.214;12.276;2024-01-10T10:00:34;-3273.70;71.60
48994;DHT22;34804;49.214;12.276;2024-01-10T10:03:10;-3273.70;70.20
48994;DHT22;34804;49.214;12.276;2024-01-10T10:05:39;-3273.80;70.40
48994;DHT22;34804;49.214;12.276;2024-01-10T10:08:12;-3273.90;70.70
48994;DHT22;34804;49.214;12.276;2024-01-10T10:10:39;-3273.90;69.90
48994;DHT22;34804;49.214;12.276;2024-01-10T10:13:10;-3274.00;68.90
48994;DHT22;34804;49.214;12.276;2024-01-10T10:15:41;-3274.00;69.50
48994;DHT22;34804;49.214;12.276;2024-01-10T10:18:13;-3274.00;69.00
48994;DHT22;34804;49.214;12.276;2024-01-10T10:20:40;-3274.00;68.30
48994;DHT22;34804;49.214;12.276;2024-01-10T10:23:08;-3274.00;69.90
48994;DHT22;34804;49.214;12.276;2024-01-10T10:25:46;-3274.00;70.50
48994;DHT22;34804;49.214;12.276;2024-01-10T10:28:15;-3274.00;69.10
48994;DHT22;34804;49.214;12.276;2024-01-10T10:30:55;-3274.20;69.50
48994;DHT22;34804;49.214;12.276;2024-01-10T10:33:22;-3274.30;69.50
48994;DHT22;34804;49.214;12.276;2024-01-10T10:35:50;-3274.50;68.30
48994;DHT22;34804;49.214;12.276;2024-01-10T10:38:22;-3274.60;68.70
48994;DHT22;34804;49.214;12.276;2024-01-10T10:40:49;-3274.70;68.10
48994;DHT22;34804;49.214;12.276;2024-01-10T10:43:18;-3274.80;66.90
48994;DHT22;34804;49.214;12.276;2024-01-10T10:45:48;-3274.80;67.00
48994;DHT22;34804;49.214;12.276;2024-01-10T10:48:17;-3274.80;67.60
48994;DHT22;34804;49.214;12.276;2024-01-10T10:51:05;-3274.90;66.50
48994;DHT22;34804;49.214;12.276;2024-01-10T10:53:36;-3275.00;67.30
48994;DHT22;34804;49.214;12.276;2024-01-10T10:56:05;-3275.10;67.20
48994;DHT22;34804;49.214;12.276;2024-01-10T10:58:38;-3275.20;66.50
48994;DHT22;34804;49.214;12.276;2024-01-10T11:01:06;-3275.30;64.90
48994;DHT22;34804;49.214;12.276;2024-01-10T11:03:38;-3275.40;65.70
48994;DHT22;34804;49.214;12.276;2024-01-10T11:06:07;-3275.50;65.30
48994;DHT22;34804;49.214;12.276;2024-01-10T11:08:37;-3275.70;64.90
48994;DHT22;34804;49.214;12.276;2024-01-10T11:11:07;-3275.90;64.50
48994;DHT22;34804;49.214;12.276;2024-01-10T11:13:52;-3276.10;62.90
48994;DHT22;34804;49.214;12.276;2024-01-10T11:22:03;-3276.50;62.60
48994;DHT22;34804;49.214;12.276;2024-01-10T11:24:34;-3276.50;61.70
48994;DHT22;34804;49.214;12.276;2024-01-10T11:27:12;0.00;61.10
48994;DHT22;34804;49.214;12.276;2024-01-10T11:29:40;-3276.70;61.90
48994;DHT22;34804;49.214;12.276;2024-01-10T11:32:17;0.10;61.10
48994;DHT22;34804;49.214;12.276;2024-01-10T11:34:59;0.00;59.50
48994;DHT22;34804;49.214;12.276;2024-01-10T11:37:42;-3276.70;62.10
48994;DHT22;34804;49.214;12.276;2024-01-10T11:40:11;0.10;61.50
48994;DHT22;34804;49.214;12.276;2024-01-10T11:42:45;0.30;60.30
48994;DHT22;34804;49.214;12.276;2024-01-10T11:48:03;0.80;58.70
48994;DHT22;34804;49.214;12.276;2024-01-10T11:50:30;1.00;58.50
48994;DHT22;34804;49.214;12.276;2024-01-10T11:52:58;0.90;57.90
48994;DHT22;34804;49.214;12.276;2024-01-10T11:55:47;1.10;58.70
48994;DHT22;34804;49.214;12.276;2024-01-10T11:58:14;1.10;57.80
48994;DHT22;34804;49.214;12.276;2024-01-10T12:00:41;1.20;56.70
48994;DHT22;34804;49.214;12.276;2024-01-10T12:03:11;1.30;56.30
48994;DHT22;34804;49.214;12.276;2024-01-10T12:05:37;1.40;55.20
48994;DHT22;34804;49.214;12.276;2024-01-10T12:08:06;1.20;58.10
48994;DHT22;34804;49.214;12.276;2024-01-10T12:10:34;1.70;57.30
48994;DHT22;34804;49.214;12.276;2024-01-10T12:13:03;2.30;54.30
48994;DHT22;34804;49.214;12.276;2024-01-10T12:15:30;2.60;53.90
48994;DHT22;34804;49.214;12.276;2024-01-10T12:17:57;2.40;51.90
48994;DHT22;34804;49.214;12.276;2024-01-10T12:20:24;2.30;52.50
48994;DHT22;34804;49.214;12.276;2024-01-10T12:22:51;2.00;54.60
48994;DHT22;34804;49.214;12.276;2024-01-10T12:25:18;2.70;52.70
48994;DHT22;34804;49.214;12.276;2024-01-10T12:27:46;2.50;53.30
48994;DHT22;34804;49.214;12.276;2024-01-10T12:30:13;2.80;51.30
48994;DHT22;34804;49.214;12.276;2024-01-10T12:32:42;2.80;51.80
48994;DHT22;34804;49.214;12.276;2024-01-10T12:35:09;3.00;51.90
48994;DHT22;34804;49.214;12.276;2024-01-10T12:37:36;2.60;50.40
48994;DHT22;34804;49.214;12.276;2024-01-10T12:40:04;2.60;54.10
48994;DHT22;34804;49.214;12.276;2024-01-10T12:42:36;3.30;51.40
48994;DHT22;34804;49.214;12.276;2024-01-10T12:45:03;3.90;50.60
48994;DHT22;34804;49.214;12.276;2024-01-10T12:47:31;4.00;48.30
48994;DHT22;34804;49.214;12.276;2024-01-10T12:50:01;3.50;52.00
48994;DHT22;34804;49.214;12.276;2024-01-10T12:52:28;3.50;50.70
48994;DHT22;34804;49.214;12.276;2024-01-10T12:54:55;3.60;49.20
48994;DHT22;34804;49.214;12.276;2024-01-10T12:57:22;3.80;50.80
48994;DHT22;34804;49.214;12.276;2024-01-10T12:59:50;4.50;49.20
48994;DHT22;34804;49.214;12.276;2024-01-10T13:02:17;4.90;47.80
48994;DHT22;34804;49.214;12.276;2024-01-10T13:04:45;4.80;47.60
48994;DHT22;34804;49.214;12.276;2024-01-10T13:07:12;5.20;46.10
48994;DHT22;34804;49.214;12.276;2024-01-10T13:09:39;4.70;47.90
48994;DHT22;34804;49.214;12.276;2024-01-10T13:12:06;4.70;47.80
48994;DHT22;34804;49.214;12.276;2024-01-10T13:14:33;5.90;45.20
48994;DHT22;34804;49.214;12.276;2024-01-10T13:17:02;6.10;44.80
48994;DHT22;34804;49.214;12.276;2024-01-10T13:19:31;6.70;43.40
48994;DHT22;34804;49.214;12.276;2024-01-10T13:21:58;6.90;42.10
48994;DHT22;34804;49.214;12.276;2024-01-10T13:24:24;7.10;40.70
48994;DHT22;34804;49.214;12.276;2024-01-10T13:26:53;7.50;41.40
48994;DHT22;34804;49.214;12.276;2024-01-10T13:29:20;7.60;41.10
48994;DHT22;34804;49.214;12.276;2024-01-10T13:31:47;7.70;40.70
48994;DHT22;34804;49.214;12.276;2024-01-10T13:34:16;7.60;40.60
48994;DHT22;34804;49.214;12.276;2024-01-10T13:36:43;7.40;40.00
48994;DHT22;34804;49.214;12.276;2024-01-10T13:39:09;7.20;41.10
48994;DHT22;34804;49.214;12.276;2024-01-10T13:41:41;6.90;41.70
48994;DHT22;34804;49.214;12.276;2024-01-10T13:44:08;7.30;41.30
48994;DHT22;34804;49.214;12.276;2024-01-10T13:46:36;7.30;41.30
48994;DHT22;34804;49.214;12.276;2024-01-10T13:49:03;7.30;41.00
48994;DHT22;34804;49.214;12.276;2024-01-10T13:51:30;7.30;40.90
48994;DHT22;34804;49.214;12.276;2024-01-10T13:53:57;7.50;40.30
48994;DHT22;34804;49.214;12.276;2024-01-10T13:56:24;7.40;40.70
48994;DHT22;34804;49.214;12.276;2024-01-10T13:58:54;7.90;40.30
48994;DHT22;34804;49.214;12.276;2024-01-10T14:01:21;7.90;39.90
48994;DHT22;34804;49.214;12.276;2024-01-10T14:03:48;8.00;40.00
48994;DHT22;34804;49.214;12.276;2024-01-10T14:06:16;7.80;39.20
48994;DHT22;34804;49.214;12.276;2024-01-10T14:08:43;7.50;40.50
48994;DHT22;34804;49.214;12.276;2024-01-10T14:11:13;7.30;40.20
48994;DHT22;34804;49.214;12.276;2024-01-10T14:13:41;7.40;40.70
48994;DHT22;34804;49.214;12.276;2024-01-10T14:16:08;7.40;40.90
48994;DHT22;34804;49.214;12.276;2024-01-10T14:18:35;7.40;40.90
48994;DHT22;34804;49.214;12.276;2024-01-10T14:21:02;7.70;41.10
48994;DHT22;34804;49.214;12.276;2024-01-10T14:23:30;7.30;40.70
48994;DHT22;34804;49.214;12.276;2024-01-10T14:25:57;7.50;41.00
48994;DHT22;34804;49.214;12.276;2024-01-10T14:28:25;7.40;41.00
48994;DHT22;34804;49.214;12.276;2024-01-10T14:30:52;7.10;41.40
48994;DHT22;34804;49.214;12.276;2024-01-10T14:33:35;6.90;41.20
48994;DHT22;34804;49.214;12.276;2024-01-10T14:36:02;6.30;42.40
48994;DHT22;34804;49.214;12.276;2024-01-10T14:38:31;5.90;43.10
48994;DHT22;34804;49.214;12.276;2024-01-10T14:40:58;6.20;42.70
48994;DHT22;34804;49.214;12.276;2024-01-10T14:43:25;6.20;42.90
48994;DHT22;34804;49.214;12.276;2024-01-10T14:45:52;6.20;43.20
48994;DHT22;34804;49.214;12.276;2024-01-10T14:48:19;5.80;43.50
48994;DHT22;34804;49.214;12.276;2024-01-10T14:50:47;5.50;44.50
48994;DHT22;34804;49.214;12.276;2024-01-10T14:53:14;5.00;45.70
48994;DHT22;34804;49.214;12.276;2024-01-10T14:55:41;4.80;47.20
48994;DHT22;34804;49.214;12.276;2024-01-10T14:58:08;4.60;46.90
48994;DHT22;34804;49.214;12.276;2024-01-10T15:00:35;4.10;47.90